sensor_id;sensor_type;location;lat;lon;timestamp;pressure;altitude;pressure_sealevel;temperature;humidity
64792;BME280;51226;47.504;19.074;2023-02-24T00:00:26;100069.09;;;9.50;54.76
64792;BME280;51226;47.504;19.074;2023-02-24T00:03:46;100065.75;;;9.52;54.48
64792;BME280;51226;47.504;19.074;2023-02-24T00:06:49;100070.91;;;9.51;54.62
64792;BME280;51226;47.504;19.074;2023-02-24T00:09:52;100052.88;;;9.57;53.97
64792;BME280;51226;47.504;19.074;2023-02-24T00:12:55;100052.72;;;9.52;54.57
64792;BME280;51226;47.504;19.074;2023-02-24T00:16:03;100056.91;;;9.49;54.17
64792;BME280;51226;47.504;19.074;2023-02-24T00:19:07;100061.56;;;9.33;55.17
64792;BME280;51226;47.504;19.074;2023-02-24T00:22:09;100058.81;;;9.30;54.94
64792;BME280;51226;47.504;19.074;2023-02-24T00:25:12;100056.91;;;9.24;55.83
64792;BME280;51226;47.504;19.074;2023-02-24T00:28:16;100062.34;;;9.31;55.04
64792;BME280;51226;47.504;19.074;2023-02-24T00:31:19;100050.81;;;9.24;56.01
64792;BME280;51226;47.504;19.074;2023-02-24T00:34:31;100039.63;;;9.26;56.62
64792;BME280;51226;47.504;19.074;2023-02-24T00:37:35;100042.16;;;9.25;56.93
64792;BME280;51226;47.504;19.074;2023-02-24T00:40:38;100034.16;;;9.20;57.41
64792;BME280;51226;47.504;19.074;2023-02-24T00:43:44;100036.75;;;9.19;57.99
64792;BME280;51226;47.504;19.074;2023-02-24T00:46:51;100035.91;;;9.20;57.57
64792;BME280;51226;47.504;19.074;2023-02-24T00:49:53;100026.09;;;9.13;57.19
64792;BME280;51226;47.504;19.074;2023-02-24T00:52:56;100024.66;;;9.21;57.07
64792;BME280;51226;47.504;19.074;2023-02-24T00:55:59;100024.44;;;9.15;57.98
64792;BME280;51226;47.504;19.074;2023-02-24T00:59:03;100014.63;;;9.07;58.67
64792;BME280;51226;47.504;19.074;2023-02-24T01:02:07;100014.44;;;9.03;58.69
64792;BME280;51226;47.504;19.074;2023-02-24T01:05:10;100013.91;;;9.12;57.54
64792;BME280;51226;47.504;19.074;2023-02-24T01:08:14;100009.97;;;8.99;58.28
64792;BME280;51226;47.504;19.074;2023-02-24T01:11:25;100004.41;;;8.89;59.49
64792;BME280;51226;47.504;19.074;2023-02-24T01:14:49;99993.94;;;8.88;59.96
64792;BME280;51226;47.504;19.074;2023-02-24T01:17:53;99991.34;;;8.88;60.01
64792;BME280;51226;47.504;19.074;2023-02-24T01:20:57;99989.75;;;8.92;60.52
64792;BME280;51226;47.504;19.074;2023-02-24T01:24:00;99986.19;;;8.89;60.58
64792;BME280;51226;47.504;19.074;2023-02-24T01:27:03;99979.28;;;8.90;60.13
64792;BME280;51226;47.504;19.074;2023-02-24T01:30:10;99975.03;;;8.92;60.00
64792;BME280;51226;47.504;19.074;2023-02-24T01:33:18;99973.56;;;8.99;59.90
64792;BME280;51226;47.504;19.074;2023-02-24T01:36:23;99961.13;;;8.92;59.65
64792;BME280;51226;47.504;19.074;2023-02-24T01:39:29;99950.53;;;8.87;60.58
64792;BME280;51226;47.504;19.074;2023-02-24T01:42:33;99952.34;;;8.88;61.75
64792;BME280;51226;47.504;19.074;2023-02-24T01:45:37;99943.78;;;8.90;61.72
64792;BME280;51226;47.504;19.074;2023-02-24T01:48:41;99936.97;;;8.94;61.82
64792;BME280;51226;47.504;19.074;2023-02-24T01:51:48;99936.06;;;8.94;61.59
64792;BME280;51226;47.504;19.074;2023-02-24T01:55:02;99928.25;;;8.94;60.94
64792;BME280;51226;47.504;19.074;2023-02-24T01:58:12;99928.12;;;8.89;61.60
64792;BME280;51226;47.504;19.074;2023-02-24T02:01:17;99935.78;;;8.86;61.61
64792;BME280;51226;47.504;19.074;2023-02-24T02:07:31;99926.34;;;8.88;62.14
64792;BME280;51226;47.504;19.074;2023-02-24T02:10:35;99918.47;;;8.86;61.72
64792;BME280;51226;47.504;19.074;2023-02-24T02:13:43;99916.75;;;8.87;61.80
64792;BME280;51226;47.504;19.074;2023-02-24T02:17:28;99919.34;;;8.87;61.94
64792;BME280;51226;47.504;19.074;2023-02-24T02:20:57;99911.53;;;8.87;61.78
64792;BME280;51226;47.504;19.074;2023-02-24T02:25:00;99914.19;;;8.88;61.59
64792;BME280;51226;47.504;19.074;2023-02-24T02:38:14;99891.41;;;8.81;61.36
64792;BME280;51226;47.504;19.074;2023-02-24T02:41:26;99895.72;;;8.81;60.89
64792;BME280;51226;47.504;19.074;2023-02-24T02:44:36;99889.63;;;8.80;61.15
64792;BME280;51226;47.504;19.074;2023-02-24T02:50:56;99884.44;;;8.80;61.40
64792;BME280;51226;47.504;19.074;2023-02-24T02:57:20;99881.13;;;8.84;60.63
64792;BME280;51226;47.504;19.074;2023-02-24T03:00:31;99885.41;;;8.82;60.48
64792;BME280;51226;47.504;19.074;2023-02-24T03:03:39;99877.34;;;8.76;60.98
64792;BME280;51226;47.504;19.074;2023-02-24T03:07:03;99876.53;;;8.77;60.95
64792;BME280;51226;47.504;19.074;2023-02-24T03:10:11;99871.41;;;8.79;60.90
64792;BME280;51226;47.504;19.074;2023-02-24T03:13:23;99870.44;;;8.77;61.02
64792;BME280;51226;47.504;19.074;2023-02-24T03:16:32;99869.56;;;8.76;60.90
64792;BME280;51226;47.504;19.074;2023-02-24T03:19:38;99864.47;;;8.79;61.02
64792;BME280;51226;47.504;19.074;2023-02-24T03:22:46;99862.75;;;8.80;61.28
64792;BME280;51226;47.504;19.074;2023-02-24T03:26:12;99856.72;;;8.81;61.35
64792;BME280;51226;47.504;19.074;2023-02-24T03:29:24;99853.12;;;8.77;61.67
64792;BME280;51226;47.504;19.074;2023-02-24T03:33:01;99846.97;;;8.75;61.66
64792;BME280;51226;47.504;19.074;2023-02-24T03:36:07;99853.03;;;8.74;61.88
64792;BME280;51226;47.504;19.074;2023-02-24T03:39:10;99849.44;;;8.70;61.41
64792;BME280;51226;47.504;19.074;2023-02-24T03:42:17;99848.75;;;8.76;61.35
64792;BME280;51226;47.504;19.074;2023-02-24T03:45:20;99836.50;;;8.72;61.57
64792;BME280;51226;47.504;19.074;2023-02-24T03:48:27;99844.22;;;8.70;61.79
64792;BME280;51226;47.504;19.074;2023-02-24T03:51:30;99837.25;;;8.69;61.82
64792;BME280;51226;47.504;19.074;2023-02-24T04:01:13;99843.31;;;8.70;61.17
64792;BME280;51226;47.504;19.074;2023-02-24T04:10:57;99820.03;;;8.73;61.04
64792;BME280;51226;47.504;19.074;2023-02-24T04:14:21;99824.69;;;8.82;60.17
64792;BME280;51226;47.504;19.074;2023-02-24T04:20:44;99810.75;;;8.56;61.54
64792;BME280;51226;47.504;19.074;2023-02-24T04:23:53;99801.19;;;8.55;61.86
64792;BME280;51226;47.504;19.074;2023-02-24T04:26:59;99791.47;;;8.49;62.19
64792;BME280;51226;47.504;19.074;2023-02-24T04:30:05;99787.97;;;8.48;62.46
64792;BME280;51226;47.504;19.074;2023-02-24T04:33:13;99792.50;;;8.54;62.11
64792;BME280;51226;47.504;19.074;2023-02-24T04:36:17;99779.47;;;8.52;62.55
64792;BME280;51226;47.504;19.074;2023-02-24T04:39:20;99791.28;;;8.68;61.51
64792;BME280;51226;47.504;19.074;2023-02-24T04:42:26;99777.12;;;8.60;61.76
64792;BME280;51226;47.504;19.074;2023-02-24T04:45:30;99780.22;;;8.50;62.25
64792;BME280;51226;47.504;19.074;2023-02-24T04:48:33;99782.63;;;8.44;63.00
64792;BME280;51226;47.504;19.074;2023-02-24T04:51:37;99768.19;;;8.52;62.32
64792;BME280;51226;47.504;19.074;2023-02-24T04:54:43;99764.34;;;8.42;62.69
64792;BME280;51226;47.504;19.074;2023-02-24T04:57:48;99765.94;;;8.39;62.90
64792;BME280;51226;47.504;19.074;2023-02-24T05:00:51;99763.38;;;8.40;63.17
64792;BME280;51226;47.504;19.074;2023-02-24T05:03:54;99754.84;;;8.43;62.96
64792;BME280;51226;47.504;19.074;2023-02-24T05:06:57;99750.69;;;8.48;62.83
64792;BME280;51226;47.504;19.074;2023-02-24T05:10:00;99759.03;;;8.63;62.01
64792;BME280;51226;47.504;19.074;2023-02-24T05:13:05;99752.16;;;8.64;62.21
64792;BME280;51226;47.504;19.074;2023-02-24T05:16:12;99750.94;;;8.54;62.84
64792;BME280;51226;47.504;19.074;2023-02-24T05:19:18;99749.75;;;8.46;63.27
64792;BME280;51226;47.504;19.074;2023-02-24T05:22:39;99744.50;;;8.44;63.27
64792;BME280;51226;47.504;19.074;2023-02-24T05:25:42;99745.72;;;8.54;62.68
64792;BME280;51226;47.504;19.074;2023-02-24T05:28:47;99740.25;;;8.46;63.02
64792;BME280;51226;47.504;19.074;2023-02-24T05:31:51;99733.97;;;8.41;63.50
64792;BME280;51226;47.504;19.074;2023-02-24T05:35:01;99747.84;;;8.42;63.63
64792;BME280;51226;47.504;19.074;2023-02-24T05:38:04;99744.69;;;8.49;62.93
64792;BME280;51226;47.504;19.074;2023-02-24T05:41:17;99747.06;;;8.43;63.36
64792;BME280;51226;47.504;19.074;2023-02-24T05:44:23;99733.16;;;8.42;63.52
64792;BME280;51226;47.504;19.074;2023-02-24T05:47:27;99733.25;;;8.44;63.50
64792;BME280;51226;47.504;19.074;2023-02-24T05:50:31;99726.91;;;8.37;63.60
64792;BME280;51226;47.504;19.074;2023-02-24T05:53:34;99726.56;;;8.50;63.14
64792;BME280;51226;47.504;19.074;2023-02-24T05:56:40;99728.47;;;8.32;64.09
64792;BME280;51226;47.504;19.074;2023-02-24T05:59:49;99731.12;;;8.35;63.95
64792;BME280;51226;47.504;19.074;2023-02-24T06:02:52;99732.44;;;8.22;64.52
64792;BME280;51226;47.504;19.074;2023-02-24T06:05:56;99725.16;;;8.13;65.19
64792;BME280;51226;47.504;19.074;2023-02-24T06:09:12;99730.41;;;8.15;65.38
64792;BME280;51226;47.504;19.074;2023-02-24T06:12:16;99732.44;;;8.22;64.93
64792;BME280;51226;47.504;19.074;2023-02-24T06:15:19;99729.84;;;8.22;65.20
64792;BME280;51226;47.504;19.074;2023-02-24T06:18:22;99734.22;;;8.25;65.23
64792;BME280;51226;47.504;19.074;2023-02-24T06:21:25;99728.66;;;8.14;65.70
64792;BME280;51226;47.504;19.074;2023-02-24T06:24:31;99731.25;;;8.14;65.81
64792;BME280;51226;47.504;19.074;2023-02-24T06:27:34;99729.53;;;8.14;65.85
64792;BME280;51226;47.504;19.074;2023-02-24T06:30:40;99734.56;;;8.10;66.21
64792;BME280;51226;47.504;19.074;2023-02-24T06:33:43;99732.06;;;8.13;66.35
64792;BME280;51226;47.504;19.074;2023-02-24T06:36:46;99733.00;;;8.15;66.48
64792;BME280;51226;47.504;19.074;2023-02-24T06:39:50;99735.66;;;8.16;66.38
64792;BME280;51226;47.504;19.074;2023-02-24T06:42:53;99731.63;;;8.25;66.36
64792;BME280;51226;47.504;19.074;2023-02-24T06:45:56;99722.41;;;8.33;66.05
64792;BME280;51226;47.504;19.074;2023-02-24T06:48:59;99720.16;;;8.42;65.96
64792;BME280;51226;47.504;19.074;2023-02-24T06:52:02;99720.09;;;8.41;66.00
64792;BME280;51226;47.504;19.074;2023-02-24T06:55:06;99720.25;;;8.44;66.25
64792;BME280;51226;47.504;19.074;2023-02-24T06:58:26;99726.16;;;8.64;65.51
64792;BME280;51226;47.504;19.074;2023-02-24T07:01:29;99725.56;;;8.73;65.02
64792;BME280;51226;47.504;19.074;2023-02-24T07:04:32;99713.81;;;8.58;65.49
64792;BME280;51226;47.504;19.074;2023-02-24T07:07:45;99700.06;;;8.38;66.52
64792;BME280;51226;47.504;19.074;2023-02-24T07:10:52;99711.56;;;8.43;66.78
64792;BME280;51226;47.504;19.074;2023-02-24T07:13:58;99709.47;;;8.57;66.55
64792;BME280;51226;47.504;19.074;2023-02-24T07:17:01;99700.50;;;8.75;65.65
64792;BME280;51226;47.504;19.074;2023-02-24T07:20:06;99688.34;;;8.74;65.67
64792;BME280;51226;47.504;19.074;2023-02-24T07:23:13;99690.91;;;8.72;65.92
64792;BME280;51226;47.504;19.074;2023-02-24T07:26:18;99689.53;;;8.83;66.01
64792;BME280;51226;47.504;19.074;2023-02-24T07:29:25;99695.66;;;9.11;65.38
64792;BME280;51226;47.504;19.074;2023-02-24T07:32:28;99693.09;;;9.40;64.63
64792;BME280;51226;47.504;19.074;2023-02-24T07:35:32;99686.34;;;9.75;62.95
64792;BME280;51226;47.504;19.074;2023-02-24T07:38:37;99683.22;;;9.87;62.90
64792;BME280;51226;47.504;19.074;2023-02-24T07:41:41;99673.47;;;10.10;61.95
64792;BME280;51226;47.504;19.074;2023-02-24T07:44:47;99675.88;;;10.33;60.97
64792;BME280;51226;47.504;19.074;2023-02-24T07:47:50;99678.66;;;10.39;61.06
64792;BME280;51226;47.504;19.074;2023-02-24T07:50:56;99674.47;;;10.44;60.41
64792;BME280;51226;47.504;19.074;2023-02-24T07:54:01;99678.88;;;10.47;60.95
64792;BME280;51226;47.504;19.074;2023-02-24T07:57:05;99681.78;;;10.57;60.75
64792;BME280;51226;47.504;19.074;2023-02-24T08:00:08;99666.34;;;10.67;60.59
64792;BME280;51226;47.504;19.074;2023-02-24T08:03:21;99661.59;;;10.85;60.09
64792;BME280;51226;47.504;19.074;2023-02-24T08:06:25;99664.41;;;10.93;59.94
64792;BME280;51226;47.504;19.074;2023-02-24T08:09:31;99654.94;;;10.97;59.65
64792;BME280;51226;47.504;19.074;2023-02-24T08:12:46;99665.53;;;11.03;59.19
64792;BME280;51226;47.504;19.074;2023-02-24T08:15:49;99661.72;;;11.26;58.65
64792;BME280;51226;47.504;19.074;2023-02-24T08:18:57;99655.03;;;11.79;57.35
64792;BME280;51226;47.504;19.074;2023-02-24T08:22:01;99652.78;;;12.38;54.75
64792;BME280;51226;47.504;19.074;2023-02-24T08:25:25;99648.94;;;12.67;54.39
64792;BME280;51226;47.504;19.074;2023-02-24T08:28:40;99646.78;;;12.96;53.23
64792;BME280;51226;47.504;19.074;2023-02-24T08:31:43;99642.22;;;13.38;52.40
64792;BME280;51226;47.504;19.074;2023-02-24T08:34:46;99644.38;;;13.65;51.62
64792;BME280;51226;47.504;19.074;2023-02-24T08:37:52;99635.37;;;13.46;51.78
64792;BME280;51226;47.504;19.074;2023-02-24T08:40:56;99629.41;;;12.98;52.98
64792;BME280;51226;47.504;19.074;2023-02-24T08:44:06;99635.81;;;12.64;53.85
64792;BME280;51226;47.504;19.074;2023-02-24T08:47:12;99619.69;;;12.40;54.82
64792;BME280;51226;47.504;19.074;2023-02-24T08:50:15;99620.59;;;13.51;52.63
64792;BME280;51226;47.504;19.074;2023-02-24T08:53:18;99614.19;;;16.71;44.50
64792;BME280;51226;47.504;19.074;2023-02-24T08:56:26;99605.78;;;19.49;38.18
64792;BME280;51226;47.504;19.074;2023-02-24T08:59:30;99602.00;;;21.91;33.26
64792;BME280;51226;47.504;19.074;2023-02-24T09:02:40;99589.47;;;23.76;30.33
64792;BME280;51226;47.504;19.074;2023-02-24T09:05:44;99592.09;;;24.09;29.37
64792;BME280;51226;47.504;19.074;2023-02-24T09:08:47;99580.53;;;25.19;27.95
64792;BME280;51226;47.504;19.074;2023-02-24T09:11:58;99578.97;;;26.78;25.79
64792;BME280;51226;47.504;19.074;2023-02-24T09:15:02;99577.06;;;28.04;24.44
64792;BME280;51226;47.504;19.074;2023-02-24T09:18:09;99563.38;;;28.83;22.99
64792;BME280;51226;47.504;19.074;2023-02-24T09:21:15;99563.62;;;29.82;21.63
64792;BME280;51226;47.504;19.074;2023-02-24T09:24:40;99557.31;;;30.15;20.96
64792;BME280;51226;47.504;19.074;2023-02-24T09:28:03;99554.09;;;31.02;20.18
64792;BME280;51226;47.504;19.074;2023-02-24T09:31:10;99540.06;;;31.26;19.93
64792;BME280;51226;47.504;19.074;2023-02-24T09:34:18;99536.94;;;31.62;19.24
64792;BME280;51226;47.504;19.074;2023-02-24T09:37:22;99535.00;;;31.35;19.52
64792;BME280;51226;47.504;19.074;2023-02-24T09:40:27;99527.19;;;31.16;19.73
64792;BME280;51226;47.504;19.074;2023-02-24T09:43:42;99534.50;;;29.56;21.45
64792;BME280;51226;47.504;19.074;2023-02-24T09:46:51;99524.31;;;27.46;24.06
64792;BME280;51226;47.504;19.074;2023-02-24T09:54:18;99539.28;;;24.22;27.77
64792;BME280;51226;47.504;19.074;2023-02-24T09:57:22;99527.00;;;22.92;29.81
64792;BME280;51226;47.504;19.074;2023-02-24T10:00:29;99524.59;;;22.49;31.16
64792;BME280;51226;47.504;19.074;2023-02-24T10:03:40;99511.56;;;21.99;32.38
64792;BME280;51226;47.504;19.074;2023-02-24T10:07:39;99514.59;;;21.82;32.69
64792;BME280;51226;47.504;19.074;2023-02-24T10:10:27;99509.50;;;21.27;33.22
64792;BME280;51226;47.504;19.074;2023-02-24T10:13:39;99513.87;;;20.85;34.18
64792;BME280;51226;47.504;19.074;2023-02-24T10:16:46;99513.09;;;20.22;35.69
64792;BME280;51226;47.504;19.074;2023-02-24T10:26:56;99494.81;;;18.56;38.91
64792;BME280;51226;47.504;19.074;2023-02-24T10:30:24;99488.84;;;18.31;39.42
64792;BME280;51226;47.504;19.074;2023-02-24T10:33:39;99486.50;;;17.86;40.99
64792;BME280;51226;47.504;19.074;2023-02-24T10:36:47;99478.78;;;17.51;42.20
64792;BME280;51226;47.504;19.074;2023-02-24T10:40:01;99474.56;;;17.02;42.95
64792;BME280;51226;47.504;19.074;2023-02-24T10:43:17;99464.06;;;16.87;44.00
64792;BME280;51226;47.504;19.074;2023-02-24T10:46:27;99462.31;;;16.92;44.34
64792;BME280;51226;47.504;19.074;2023-02-24T10:49:48;99457.03;;;17.04;43.63
64792;BME280;51226;47.504;19.074;2023-02-24T10:53:13;99454.31;;;17.18;43.91
64792;BME280;51226;47.504;19.074;2023-02-24T10:56:41;99447.25;;;17.28;43.65
64792;BME280;51226;47.504;19.074;2023-02-24T10:59:56;99446.50;;;16.82;44.71
64792;BME280;51226;47.504;19.074;2023-02-24T11:03:22;99431.56;;;16.94;44.95
64792;BME280;51226;47.504;19.074;2023-02-24T11:06:38;99424.41;;;17.33;43.93
64792;BME280;51226;47.504;19.074;2023-02-24T11:10:03;99417.97;;;17.75;43.13
64792;BME280;51226;47.504;19.074;2023-02-24T11:13:15;99408.81;;;18.26;41.56
64792;BME280;51226;47.504;19.074;2023-02-24T11:16:43;99409.13;;;18.80;40.40
64792;BME280;51226;47.504;19.074;2023-02-24T11:20:18;99395.06;;;18.81;38.80
64792;BME280;51226;47.504;19.074;2023-02-24T11:23:31;99389.78;;;18.83;38.72
64792;BME280;51226;47.504;19.074;2023-02-24T11:26:38;99391.00;;;18.48;39.10
64792;BME280;51226;47.504;19.074;2023-02-24T11:33:30;99374.81;;;17.86;40.95
64792;BME280;51226;47.504;19.074;2023-02-24T11:40:16;99363.44;;;17.79;41.38
64792;BME280;51226;47.504;19.074;2023-02-24T11:43:23;99352.19;;;17.54;41.56
64792;BME280;51226;47.504;19.074;2023-02-24T11:46:36;99353.97;;;17.53;42.05
64792;BME280;51226;47.504;19.074;2023-02-24T11:49:49;99337.19;;;17.64;42.62
64792;BME280;51226;47.504;19.074;2023-02-24T11:52:56;99331.50;;;18.14;41.54
64792;BME280;51226;47.504;19.074;2023-02-24T11:56:10;99340.22;;;18.24;41.97
64792;BME280;51226;47.504;19.074;2023-02-24T11:59:57;99324.84;;;17.69;42.36
64792;BME280;51226;47.504;19.074;2023-02-24T12:03:30;99316.88;;;17.76;42.44
64792;BME280;51226;47.504;19.074;2023-02-24T12:07:13;99316.91;;;17.73;42.55
64792;BME280;51226;47.504;19.074;2023-02-24T12:10:50;99313.63;;;17.42;43.52
64792;BME280;51226;47.504;19.074;2023-02-24T12:17:30;99304.00;;;17.36;44.46
64792;BME280;51226;47.504;19.074;2023-02-24T12:20:43;99295.97;;;17.53;43.64
64792;BME280;51226;47.504;19.074;2023-02-24T12:23:47;99285.31;;;17.66;43.63
64792;BME280;51226;47.504;19.074;2023-02-24T12:27:14;99280.62;;;18.02;43.15
64792;BME280;51226;47.504;19.074;2023-02-24T12:30:28;99289.88;;;18.41;42.15
64792;BME280;51226;47.504;19.074;2023-02-24T12:37:17;99280.28;;;18.32;42.56
64792;BME280;51226;47.504;19.074;2023-02-24T12:40:34;99281.22;;;18.28;43.43
64792;BME280;51226;47.504;19.074;2023-02-24T12:44:05;99270.84;;;18.10;42.07
64792;BME280;51226;47.504;19.074;2023-02-24T12:47:24;99270.25;;;17.78;42.94
64792;BME280;51226;47.504;19.074;2023-02-24T12:54:07;99246.72;;;17.54;43.41
64792;BME280;51226;47.504;19.074;2023-02-24T12:57:52;99272.25;;;17.50;43.14
64792;BME280;51226;47.504;19.074;2023-02-24T13:04:25;99248.00;;;17.02;44.20
64792;BME280;51226;47.504;19.074;2023-02-24T13:14:38;99237.63;;;16.77;44.81
64792;BME280;51226;47.504;19.074;2023-02-24T13:17:47;99233.25;;;16.67;44.70
64792;BME280;51226;47.504;19.074;2023-02-24T13:24:04;99224.59;;;16.49;44.80
64792;BME280;51226;47.504;19.074;2023-02-24T13:34:26;99216.06;;;15.61;46.82
64792;BME280;51226;47.504;19.074;2023-02-24T13:37:36;99210.84;;;15.40;47.27
64792;BME280;51226;47.504;19.074;2023-02-24T13:40:40;99202.09;;;15.16;47.38
64792;BME280;51226;47.504;19.074;2023-02-24T13:43:53;99209.09;;;14.98;48.71
64792;BME280;51226;47.504;19.074;2023-02-24T13:47:19;99204.72;;;15.04;47.91
64792;BME280;51226;47.504;19.074;2023-02-24T14:04:03;99185.31;;;14.38;46.87
64792;BME280;51226;47.504;19.074;2023-02-24T14:07:14;99188.75;;;14.30;46.92
64792;BME280;51226;47.504;19.074;2023-02-24T14:10:21;99178.25;;;14.20;47.07
64792;BME280;51226;47.504;19.074;2023-02-24T14:13:28;99167.75;;;14.26;47.19
64792;BME280;51226;47.504;19.074;2023-02-24T14:16:37;99167.84;;;14.45;47.06
64792;BME280;51226;47.504;19.074;2023-02-24T14:19:44;99171.34;;;14.56;46.71
64792;BME280;51226;47.504;19.074;2023-02-24T14:22:49;99154.81;;;14.65;46.80
64792;BME280;51226;47.504;19.074;2023-02-24T14:25:57;99151.25;;;14.57;46.93
64792;BME280;51226;47.504;19.074;2023-02-24T14:29:01;99161.72;;;14.46;47.79
64792;BME280;51226;47.504;19.074;2023-02-24T14:32:04;99152.09;;;14.48;47.84
64792;BME280;51226;47.504;19.074;2023-02-24T14:35:22;99148.63;;;14.55;48.45
64792;BME280;51226;47.504;19.074;2023-02-24T14:41:35;99134.69;;;14.69;47.04
64792;BME280;51226;47.504;19.074;2023-02-24T14:44:45;99132.94;;;14.71;46.54
64792;BME280;51226;47.504;19.074;2023-02-24T14:47:48;99132.94;;;14.77;46.20
64792;BME280;51226;47.504;19.074;2023-02-24T14:50:53;99129.41;;;14.73;46.30
64792;BME280;51226;47.504;19.074;2023-02-24T14:54:00;99121.56;;;14.67;46.32
64792;BME280;51226;47.504;19.074;2023-02-24T14:57:07;99118.91;;;14.59;47.20
64792;BME280;51226;47.504;19.074;2023-02-24T15:00:19;99112.81;;;14.60;46.94
64792;BME280;51226;47.504;19.074;2023-02-24T15:03:30;99115.41;;;14.67;46.54
64792;BME280;51226;47.504;19.074;2023-02-24T15:06:35;99111.06;;;14.64;46.68
64792;BME280;51226;47.504;19.074;2023-02-24T15:09:43;99103.19;;;14.69;46.63
64792;BME280;51226;47.504;19.074;2023-02-24T15:12:51;99102.28;;;14.71;46.44
64792;BME280;51226;47.504;19.074;2023-02-24T15:16:22;99099.66;;;14.67;46.78
64792;BME280;51226;47.504;19.074;2023-02-24T15:19:35;99093.56;;;14.74;46.53
64792;BME280;51226;47.504;19.074;2023-02-24T15:22:47;99090.00;;;14.58;47.22
64792;BME280;51226;47.504;19.074;2023-02-24T15:25:51;99081.31;;;14.73;46.46
64792;BME280;51226;47.504;19.074;2023-02-24T15:29:11;99074.25;;;14.53;47.09
64792;BME280;51226;47.504;19.074;2023-02-24T15:32:17;99081.25;;;14.40;48.01
64792;BME280;51226;47.504;19.074;2023-02-24T15:35:22;99077.75;;;14.43;47.59
64792;BME280;51226;47.504;19.074;2023-02-24T15:38:32;99071.66;;;14.50;47.06
64792;BME280;51226;47.504;19.074;2023-02-24T15:41:45;99065.50;;;14.33;47.95
64792;BME280;51226;47.504;19.074;2023-02-24T15:44:56;99061.13;;;14.35;47.77
64792;BME280;51226;47.504;19.074;2023-02-24T15:48:02;99066.41;;;14.42;47.77
64792;BME280;51226;47.504;19.074;2023-02-24T15:51:05;99054.13;;;14.27;48.25
64792;BME280;51226;47.504;19.074;2023-02-24T15:54:14;99052.38;;;14.20;48.57
64792;BME280;51226;47.504;19.074;2023-02-24T15:57:18;99053.25;;;14.35;48.22
64792;BME280;51226;47.504;19.074;2023-02-24T16:00:22;99053.25;;;14.18;48.64
64792;BME280;51226;47.504;19.074;2023-02-24T16:03:25;99057.59;;;14.09;49.18
64792;BME280;51226;47.504;19.074;2023-02-24T16:06:28;99063.72;;;14.13;49.10
64792;BME280;51226;47.504;19.074;2023-02-24T16:09:34;99048.81;;;14.00;49.71
64792;BME280;51226;47.504;19.074;2023-02-24T16:12:46;99048.81;;;13.87;50.17
64792;BME280;51226;47.504;19.074;2023-02-24T16:15:50;99041.81;;;13.80;50.59
64792;BME280;51226;47.504;19.074;2023-02-24T16:18:55;99038.25;;;13.69;51.11
64792;BME280;51226;47.504;19.074;2023-02-24T16:21:58;99036.50;;;13.63;51.08
64792;BME280;51226;47.504;19.074;2023-02-24T16:25:01;99033.87;;;13.66;51.36
64792;BME280;51226;47.504;19.074;2023-02-24T16:28:04;99039.06;;;13.51;51.59
64792;BME280;51226;47.504;19.074;2023-02-24T16:31:07;99034.66;;;13.39;52.17
64792;BME280;51226;47.504;19.074;2023-02-24T16:34:13;99021.53;;;13.36;52.02
64792;BME280;51226;47.504;19.074;2023-02-24T16:37:22;99017.19;;;13.37;52.02
64792;BME280;51226;47.504;19.074;2023-02-24T16:40:28;99011.00;;;13.30;52.28
64792;BME280;51226;47.504;19.074;2023-02-24T16:43:32;99003.16;;;13.28;52.36
64792;BME280;51226;47.504;19.074;2023-02-24T16:46:39;99004.88;;;13.22;52.55
64792;BME280;51226;47.504;19.074;2023-02-24T16:49:45;99002.19;;;13.12;52.76
64792;BME280;51226;47.504;19.074;2023-02-24T16:52:48;98992.59;;;13.14;52.57
64792;BME280;51226;47.504;19.074;2023-02-24T16:55:52;98995.25;;;13.22;52.36
64792;BME280;51226;47.504;19.074;2023-02-24T16:58:55;98993.50;;;13.16;52.38
64792;BME280;51226;47.504;19.074;2023-02-24T17:01:58;98983.91;;;13.20;52.05
64792;BME280;51226;47.504;19.074;2023-02-24T17:05:01;98984.75;;;13.18;52.08
64792;BME280;51226;47.504;19.074;2023-02-24T17:08:04;98983.00;;;13.10;52.46
64792;BME280;51226;47.504;19.074;2023-02-24T17:11:12;98985.53;;;12.96;52.89
64792;BME280;51226;47.504;19.074;2023-02-24T17:14:18;98982.94;;;13.04;52.58
64792;BME280;51226;47.504;19.074;2023-02-24T17:17:21;98978.59;;;13.06;52.34
64792;BME280;51226;47.504;19.074;2023-02-24T17:20:23;98977.69;;;12.98;52.68
64792;BME280;51226;47.504;19.074;2023-02-24T17:23:26;98973.28;;;12.92;53.06
64792;BME280;51226;47.504;19.074;2023-02-24T17:26:29;98975.94;;;12.95;53.17
64792;BME280;51226;47.504;19.074;2023-02-24T17:29:32;98969.78;;;12.89;53.36
64792;BME280;51226;47.504;19.074;2023-02-24T17:32:35;98964.53;;;12.86;53.63
64792;BME280;51226;47.504;19.074;2023-02-24T17:35:39;98960.12;;;12.75;53.84
64792;BME280;51226;47.504;19.074;2023-02-24T17:38:42;98954.84;;;12.71;54.20
64792;BME280;51226;47.504;19.074;2023-02-24T17:41:45;98962.66;;;12.63;54.53
64792;BME280;51226;47.504;19.074;2023-02-24T17:44:48;98954.75;;;12.54;54.83
64792;BME280;51226;47.504;19.074;2023-02-24T17:47:51;98957.34;;;12.52;54.92
64792;BME280;51226;47.504;19.074;2023-02-24T17:50:55;98956.37;;;12.41;55.23
64792;BME280;51226;47.504;19.074;2023-02-24T17:53:58;98960.72;;;12.37;55.30
64792;BME280;51226;47.504;19.074;2023-02-24T17:57:01;98958.13;;;12.39;55.42
64792;BME280;51226;47.504;19.074;2023-02-24T18:00:04;98957.25;;;12.38;55.44
64792;BME280;51226;47.504;19.074;2023-02-24T18:03:13;98943.19;;;12.26;55.77
64792;BME280;51226;47.504;19.074;2023-02-24T18:06:17;98937.97;;;12.24;55.81
64792;BME280;51226;47.504;19.074;2023-02-24T18:09:20;98931.88;;;12.25;55.49
64792;BME280;51226;47.504;19.074;2023-02-24T18:12:23;98937.06;;;12.19;55.67